sensor_id;sensor_type;location;lat;lon;timestamp;P1;durP1;ratioP1;P2;durP2;ratioP2
58472;SDS011;44775;51.564;5.460;2023-10-13T00:01:00;19.85;;;12.90;;
58472;SDS011;44775;51.564;5.460;2023-10-13T00:03:29;20.83;;;13.18;;
58472;SDS011;44775;51.564;5.460;2023-10-13T00:05:57;22.88;;;13.48;;
58472;SDS011;44775;51.564;5.460;2023-10-13T00:08:27;19.48;;;12.15;;
58472;SDS011;44775;51.564;5.460;2023-10-13T00:10:54;20.38;;;13.13;;
58472;SDS011;44775;51.564;5.460;2023-10-13T00:13:24;20.67;;;12.77;;
58472;SDS011;44775;51.564;5.460;2023-10-13T00:15:51;22.15;;;12.15;;
58472;SDS011;44775;51.564;5.460;2023-10-13T00:18:26;23.17;;;13.60;;
58472;SDS011;44775;51.564;5.460;2023-10-13T00:20:58;24.17;;;12.75;;
58472;SDS011;44775;51.564;5.460;2023-10-13T00:23:24;20.17;;;12.43;;
58472;SDS011;44775;51.564;5.460;2023-10-13T00:25:52;22.58;;;12.73;;
58472;SDS011;44775;51.564;5.460;2023-10-13T00:28:27;22.80;;;12.20;;
58472;SDS011;44775;51.564;5.460;2023-10-13T00:31:00;22.42;;;12.57;;
58472;SDS011;44775;51.564;5.460;2023-10-13T00:33:36;18.23;;;11.32;;
58472;SDS011;44775;51.564;5.460;2023-10-13T00:36:03;20.58;;;11.15;;
58472;SDS011;44775;51.564;5.460;2023-10-13T00:38:30;19.35;;;11.70;;
58472;SDS011;44775;51.564;5.460;2023-10-13T00:40:55;19.42;;;12.15;;
58472;SDS011;44775;51.564;5.460;2023-10-13T00:43:21;20.38;;;11.55;;
58472;SDS011;44775;51.564;5.460;2023-10-13T00:45:48;17.65;;;11.68;;
58472;SDS011;44775;51.564;5.460;2023-10-13T00:48:23;21.03;;;11.23;;
58472;SDS011;44775;51.564;5.460;2023-10-13T00:51:03;20.50;;;11.95;;
58472;SDS011;44775;51.564;5.460;2023-10-13T00:53:31;18.85;;;11.30;;
58472;SDS011;44775;51.564;5.460;2023-10-13T00:56:05;18.83;;;11.07;;
58472;SDS011;44775;51.564;5.460;2023-10-13T00:58:43;22.20;;;11.60;;
58472;SDS011;44775;51.564;5.460;2023-10-13T01:01:08;16.05;;;10.55;;
58472;SDS011;44775;51.564;5.460;2023-10-13T01:03:54;17.73;;;10.45;;
58472;SDS011;44775;51.564;5.460;2023-10-13T01:06:24;17.70;;;10.85;;
58472;SDS011;44775;51.564;5.460;2023-10-13T01:08:56;18.20;;;10.88;;
58472;SDS011;44775;51.564;5.460;2023-10-13T01:11:39;17.60;;;10.77;;
58472;SDS011;44775;51.564;5.460;2023-10-13T01:14:05;15.35;;;10.32;;
58472;SDS011;44775;51.564;5.460;2023-10-13T01:16:31;21.92;;;11.20;;
58472;SDS011;44775;51.564;5.460;2023-10-13T01:18:56;17.10;;;10.13;;
58472;SDS011;44775;51.564;5.460;2023-10-13T01:21:25;17.15;;;10.63;;
58472;SDS011;44775;51.564;5.460;2023-10-13T01:23:53;16.88;;;10.43;;
58472;SDS011;44775;51.564;5.460;2023-10-13T01:26:18;15.07;;;10.07;;
58472;SDS011;44775;51.564;5.460;2023-10-13T01:28:49;18.08;;;9.60;;
58472;SDS011;44775;51.564;5.460;2023-10-13T01:31:16;17.65;;;9.82;;
58472;SDS011;44775;51.564;5.460;2023-10-13T01:33:50;14.85;;;9.63;;
58472;SDS011;44775;51.564;5.460;2023-10-13T01:36:19;16.17;;;9.45;;
58472;SDS011;44775;51.564;5.460;2023-10-13T01:38:45;15.68;;;9.18;;
58472;SDS011;44775;51.564;5.460;2023-10-13T01:41:12;22.25;;;10.10;;
58472;SDS011;44775;51.564;5.460;2023-10-13T01:43:37;17.55;;;9.13;;
58472;SDS011;44775;51.564;5.460;2023-10-13T01:46:03;13.30;;;9.23;;
58472;SDS011;44775;51.564;5.460;2023-10-13T01:48:29;18.58;;;8.93;;
58472;SDS011;44775;51.564;5.460;2023-10-13T01:50:57;17.75;;;9.30;;
58472;SDS011;44775;51.564;5.460;2023-10-13T01:53:27;14.27;;;9.13;;
58472;SDS011;44775;51.564;5.460;2023-10-13T01:55:54;16.02;;;9.52;;
58472;SDS011;44775;51.564;5.460;2023-10-13T01:58:22;14.48;;;8.98;;
58472;SDS011;44775;51.564;5.460;2023-10-13T02:00:48;14.30;;;8.88;;
58472;SDS011;44775;51.564;5.460;2023-10-13T02:03:13;15.15;;;8.77;;
58472;SDS011;44775;51.564;5.460;2023-10-13T02:05:46;15.77;;;8.98;;
58472;SDS011;44775;51.564;5.460;2023-10-13T02:08:12;14.57;;;8.70;;
58472;SDS011;44775;51.564;5.460;2023-10-13T02:10:56;19.25;;;9.32;;
58472;SDS011;44775;51.564;5.460;2023-10-13T02:13:24;16.90;;;9.13;;
58472;SDS011;44775;51.564;5.460;2023-10-13T02:15:55;20.07;;;10.20;;
58472;SDS011;44775;51.564;5.460;2023-10-13T02:18:23;15.95;;;9.25;;
58472;SDS011;44775;51.564;5.460;2023-10-13T02:20:54;18.98;;;10.40;;
58472;SDS011;44775;51.564;5.460;2023-10-13T02:23:24;18.00;;;9.65;;
58472;SDS011;44775;51.564;5.460;2023-10-13T02:25:54;19.30;;;10.30;;
58472;SDS011;44775;51.564;5.460;2023-10-13T02:28:26;18.20;;;10.45;;
58472;SDS011;44775;51.564;5.460;2023-10-13T02:30:55;18.27;;;11.23;;
58472;SDS011;44775;51.564;5.460;2023-10-13T02:33:22;19.23;;;11.77;;
58472;SDS011;44775;51.564;5.460;2023-10-13T02:35:54;19.83;;;12.05;;
58472;SDS011;44775;51.564;5.460;2023-10-13T02:38:33;25.25;;;13.18;;
58472;SDS011;44775;51.564;5.460;2023-10-13T02:41:02;23.55;;;12.95;;
58472;SDS011;44775;51.564;5.460;2023-10-13T02:43:34;26.80;;;14.57;;
58472;SDS011;44775;51.564;5.460;2023-10-13T02:46:00;25.88;;;13.90;;
58472;SDS011;44775;51.564;5.460;2023-10-13T02:48:26;28.20;;;15.10;;
58472;SDS011;44775;51.564;5.460;2023-10-13T02:50:59;27.33;;;15.95;;
58472;SDS011;44775;51.564;5.460;2023-10-13T02:53:31;30.83;;;16.40;;
58472;SDS011;44775;51.564;5.460;2023-10-13T02:55:56;27.83;;;15.52;;
58472;SDS011;44775;51.564;5.460;2023-10-13T02:58:23;28.33;;;16.08;;
58472;SDS011;44775;51.564;5.460;2023-10-13T03:01:02;32.00;;;17.10;;
58472;SDS011;44775;51.564;5.460;2023-10-13T03:03:41;29.13;;;16.40;;
58472;SDS011;44775;51.564;5.460;2023-10-13T03:06:08;30.75;;;17.08;;
58472;SDS011;44775;51.564;5.460;2023-10-13T03:08:36;29.63;;;17.52;;
58472;SDS011;44775;51.564;5.460;2023-10-13T03:11:02;32.95;;;18.38;;
58472;SDS011;44775;51.564;5.460;2023-10-13T03:13:30;32.88;;;17.92;;
58472;SDS011;44775;51.564;5.460;2023-10-13T03:15:58;32.30;;;18.47;;
58472;SDS011;44775;51.564;5.460;2023-10-13T03:18:23;32.55;;;18.55;;
58472;SDS011;44775;51.564;5.460;2023-10-13T03:20:49;34.30;;;18.52;;
58472;SDS011;44775;51.564;5.460;2023-10-13T03:23:24;35.40;;;19.23;;
58472;SDS011;44775;51.564;5.460;2023-10-13T03:25:49;34.10;;;19.42;;
58472;SDS011;44775;51.564;5.460;2023-10-13T03:28:15;33.47;;;19.70;;
58472;SDS011;44775;51.564;5.460;2023-10-13T03:30:42;33.25;;;19.23;;
58472;SDS011;44775;51.564;5.460;2023-10-13T03:33:08;40.88;;;20.27;;
58472;SDS011;44775;51.564;5.460;2023-10-13T03:35:39;42.55;;;20.83;;
58472;SDS011;44775;51.564;5.460;2023-10-13T03:38:11;33.25;;;18.85;;
58472;SDS011;44775;51.564;5.460;2023-10-13T03:40:41;38.60;;;20.98;;
58472;SDS011;44775;51.564;5.460;2023-10-13T03:43:13;39.28;;;22.30;;
58472;SDS011;44775;51.564;5.460;2023-10-13T03:50:55;39.00;;;22.63;;
58472;SDS011;44775;51.564;5.460;2023-10-13T03:53:34;41.53;;;23.95;;
58472;SDS011;44775;51.564;5.460;2023-10-13T03:56:01;41.88;;;23.67;;
58472;SDS011;44775;51.564;5.460;2023-10-13T03:58:35;42.55;;;24.10;;
58472;SDS011;44775;51.564;5.460;2023-10-13T04:01:01;42.65;;;23.75;;
58472;SDS011;44775;51.564;5.460;2023-10-13T04:03:28;41.15;;;23.63;;
58472;SDS011;44775;51.564;5.460;2023-10-13T04:05:58;42.13;;;23.48;;
58472;SDS011;44775;51.564;5.460;2023-10-13T04:08:31;41.33;;;23.92;;
58472;SDS011;44775;51.564;5.460;2023-10-13T04:11:32;41.25;;;23.50;;
58472;SDS011;44775;51.564;5.460;2023-10-13T04:14:15;40.50;;;23.90;;
58472;SDS011;44775;51.564;5.460;2023-10-13T04:17:01;40.00;;;22.40;;
58472;SDS011;44775;51.564;5.460;2023-10-13T04:19:37;38.75;;;22.75;;
58472;SDS011;44775;51.564;5.460;2023-10-13T04:22:22;40.75;;;22.65;;
58472;SDS011;44775;51.564;5.460;2023-10-13T04:25:07;35.80;;;21.60;;
58472;SDS011;44775;51.564;5.460;2023-10-13T04:27:52;35.42;;;21.20;;
58472;SDS011;44775;51.564;5.460;2023-10-13T04:30:59;35.03;;;20.70;;
58472;SDS011;44775;51.564;5.460;2023-10-13T04:33:29;35.47;;;20.17;;
58472;SDS011;44775;51.564;5.460;2023-10-13T04:36:14;35.13;;;19.35;;
58472;SDS011;44775;51.564;5.460;2023-10-13T04:38:52;30.33;;;19.38;;
58472;SDS011;44775;51.564;5.460;2023-10-13T04:41:28;32.38;;;17.52;;
58472;SDS011;44775;51.564;5.460;2023-10-13T04:44:15;31.13;;;17.35;;
58472;SDS011;44775;51.564;5.460;2023-10-13T04:47:00;27.10;;;13.93;;
58472;SDS011;44775;51.564;5.460;2023-10-13T04:49:26;25.25;;;15.57;;
58472;SDS011;44775;51.564;5.460;2023-10-13T04:52:07;25.08;;;16.13;;
58472;SDS011;44775;51.564;5.460;2023-10-13T04:54:33;27.40;;;15.93;;
58472;SDS011;44775;51.564;5.460;2023-10-13T04:57:19;25.85;;;16.42;;
58472;SDS011;44775;51.564;5.460;2023-10-13T04:59:51;26.02;;;16.10;;
58472;SDS011;44775;51.564;5.460;2023-10-13T05:02:29;24.10;;;15.13;;
58472;SDS011;44775;51.564;5.460;2023-10-13T05:05:10;23.25;;;14.27;;
58472;SDS011;44775;51.564;5.460;2023-10-13T05:07:43;19.08;;;12.35;;
58472;SDS011;44775;51.564;5.460;2023-10-13T05:10:28;16.30;;;12.10;;
58472;SDS011;44775;51.564;5.460;2023-10-13T05:13:29;22.20;;;11.70;;
58472;SDS011;44775;51.564;5.460;2023-10-13T05:16:13;16.55;;;11.70;;
58472;SDS011;44775;51.564;5.460;2023-10-13T05:18:57;17.58;;;11.10;;
58472;SDS011;44775;51.564;5.460;2023-10-13T05:21:41;15.35;;;10.23;;
58472;SDS011;44775;51.564;5.460;2023-10-13T05:24:25;17.77;;;10.38;;
58472;SDS011;44775;51.564;5.460;2023-10-13T05:27:08;15.32;;;9.55;;
58472;SDS011;44775;51.564;5.460;2023-10-13T05:29:52;14.65;;;8.60;;
58472;SDS011;44775;51.564;5.460;2023-10-13T05:32:36;15.48;;;9.38;;
58472;SDS011;44775;51.564;5.460;2023-10-13T05:35:20;14.10;;;9.70;;
58472;SDS011;44775;51.564;5.460;2023-10-13T05:38:04;16.77;;;9.52;;
58472;SDS011;44775;51.564;5.460;2023-10-13T05:41:08;15.95;;;9.95;;
58472;SDS011;44775;51.564;5.460;2023-10-13T05:43:52;13.15;;;9.27;;
58472;SDS011;44775;51.564;5.460;2023-10-13T05:46:36;15.48;;;9.95;;
58472;SDS011;44775;51.564;5.460;2023-10-13T05:49:02;16.85;;;9.20;;
58472;SDS011;44775;51.564;5.460;2023-10-13T05:51:37;15.52;;;9.35;;
58472;SDS011;44775;51.564;5.460;2023-10-13T05:54:09;15.07;;;9.20;;
58472;SDS011;44775;51.564;5.460;2023-10-13T05:56:45;16.55;;;8.70;;
58472;SDS011;44775;51.564;5.460;2023-10-13T05:59:30;13.23;;;8.45;;
58472;SDS011;44775;51.564;5.460;2023-10-13T06:02:15;12.15;;;8.50;;
58472;SDS011;44775;51.564;5.460;2023-10-13T06:05:06;12.32;;;8.30;;
58472;SDS011;44775;51.564;5.460;2023-10-13T06:07:54;13.23;;;8.07;;
58472;SDS011;44775;51.564;5.460;2023-10-13T06:10:39;13.00;;;7.88;;
58472;SDS011;44775;51.564;5.460;2023-10-13T06:13:24;16.23;;;8.60;;
58472;SDS011;44775;51.564;5.460;2023-10-13T06:16:09;14.45;;;8.88;;
58472;SDS011;44775;51.564;5.460;2023-10-13T06:18:54;16.20;;;8.77;;
58472;SDS011;44775;51.564;5.460;2023-10-13T06:21:39;14.18;;;8.40;;
58472;SDS011;44775;51.564;5.460;2023-10-13T06:24:23;13.48;;;8.50;;
58472;SDS011;44775;51.564;5.460;2023-10-13T06:27:06;18.00;;;9.18;;
58472;SDS011;44775;51.564;5.460;2023-10-13T06:29:50;14.20;;;8.88;;
58472;SDS011;44775;51.564;5.460;2023-10-13T06:32:18;16.10;;;9.85;;
58472;SDS011;44775;51.564;5.460;2023-10-13T06:34:44;17.20;;;9.20;;
58472;SDS011;44775;51.564;5.460;2023-10-13T06:37:19;15.68;;;8.48;;
58472;SDS011;44775;51.564;5.460;2023-10-13T06:39:54;17.38;;;9.45;;
58472;SDS011;44775;51.564;5.460;2023-10-13T06:42:24;15.95;;;8.30;;
58472;SDS011;44775;51.564;5.460;2023-10-13T06:44:55;22.15;;;8.10;;
58472;SDS011;44775;51.564;5.460;2023-10-13T06:47:21;15.27;;;7.70;;
58472;SDS011;44775;51.564;5.460;2023-10-13T06:49:47;17.05;;;8.05;;
58472;SDS011;44775;51.564;5.460;2023-10-13T06:52:16;18.70;;;8.27;;
58472;SDS011;44775;51.564;5.460;2023-10-13T06:54:42;19.13;;;8.60;;
58472;SDS011;44775;51.564;5.460;2023-10-13T06:57:08;18.95;;;8.57;;
58472;SDS011;44775;51.564;5.460;2023-10-13T06:59:39;15.80;;;8.48;;
58472;SDS011;44775;51.564;5.460;2023-10-13T07:04:35;14.82;;;8.98;;
58472;SDS011;44775;51.564;5.460;2023-10-13T07:07:10;16.63;;;8.70;;
58472;SDS011;44775;51.564;5.460;2023-10-13T07:09:35;19.63;;;9.15;;
58472;SDS011;44775;51.564;5.460;2023-10-13T07:12:02;23.25;;;9.68;;
58472;SDS011;44775;51.564;5.460;2023-10-13T07:14:31;18.38;;;8.35;;
58472;SDS011;44775;51.564;5.460;2023-10-13T07:17:02;18.05;;;8.75;;
58472;SDS011;44775;51.564;5.460;2023-10-13T07:19:29;18.38;;;8.43;;
58472;SDS011;44775;51.564;5.460;2023-10-13T07:21:55;22.85;;;8.77;;
58472;SDS011;44775;51.564;5.460;2023-10-13T07:24:27;16.45;;;8.02;;
58472;SDS011;44775;51.564;5.460;2023-10-13T07:26:57;18.67;;;8.45;;
58472;SDS011;44775;51.564;5.460;2023-10-13T07:29:28;21.63;;;8.18;;
58472;SDS011;44775;51.564;5.460;2023-10-13T07:31:54;14.55;;;7.75;;
58472;SDS011;44775;51.564;5.460;2023-10-13T07:34:19;17.77;;;7.20;;
58472;SDS011;44775;51.564;5.460;2023-10-13T07:36:52;17.98;;;7.53;;
58472;SDS011;44775;51.564;5.460;2023-10-13T07:39:17;21.75;;;8.52;;
58472;SDS011;44775;51.564;5.460;2023-10-13T07:41:49;22.80;;;9.60;;
58472;SDS011;44775;51.564;5.460;2023-10-13T07:44:19;25.55;;;9.45;;
58472;SDS011;44775;51.564;5.460;2023-10-13T07:46:54;16.25;;;6.93;;
58472;SDS011;44775;51.564;5.460;2023-10-13T07:49:28;17.08;;;7.75;;
58472;SDS011;44775;51.564;5.460;2023-10-13T07:51:56;18.98;;;7.65;;
58472;SDS011;44775;51.564;5.460;2023-10-13T07:54:25;14.85;;;6.32;;
58472;SDS011;44775;51.564;5.460;2023-10-13T07:56:51;19.00;;;7.57;;
58472;SDS011;44775;51.564;5.460;2023-10-13T07:59:20;16.38;;;6.93;;
58472;SDS011;44775;51.564;5.460;2023-10-13T08:01:47;17.08;;;6.82;;
58472;SDS011;44775;51.564;5.460;2023-10-13T08:04:31;17.92;;;6.97;;
58472;SDS011;44775;51.564;5.460;2023-10-13T08:07:00;15.73;;;6.45;;
58472;SDS011;44775;51.564;5.460;2023-10-13T08:09:37;21.08;;;7.00;;
58472;SDS011;44775;51.564;5.460;2023-10-13T08:14:35;17.67;;;6.70;;
58472;SDS011;44775;51.564;5.460;2023-10-13T08:17:02;18.98;;;6.07;;
58472;SDS011;44775;51.564;5.460;2023-10-13T08:19:32;17.75;;;6.38;;
58472;SDS011;44775;51.564;5.460;2023-10-13T08:22:24;15.95;;;6.25;;
58472;SDS011;44775;51.564;5.460;2023-10-13T08:24:50;17.05;;;6.20;;
58472;SDS011;44775;51.564;5.460;2023-10-13T08:27:20;18.95;;;6.70;;
58472;SDS011;44775;51.564;5.460;2023-10-13T08:29:58;17.60;;;6.47;;
58472;SDS011;44775;51.564;5.460;2023-10-13T08:32:23;19.15;;;6.07;;
58472;SDS011;44775;51.564;5.460;2023-10-13T08:34:52;16.42;;;6.13;;
58472;SDS011;44775;51.564;5.460;2023-10-13T08:37:18;18.38;;;6.32;;
58472;SDS011;44775;51.564;5.460;2023-10-13T08:39:51;16.63;;;6.28;;
58472;SDS011;44775;51.564;5.460;2023-10-13T08:42:28;12.80;;;6.20;;
58472;SDS011;44775;51.564;5.460;2023-10-13T08:45:04;15.23;;;6.38;;
58472;SDS011;44775;51.564;5.460;2023-10-13T08:48:07;16.10;;;6.57;;
58472;SDS011;44775;51.564;5.460;2023-10-13T08:50:37;17.38;;;6.93;;
58472;SDS011;44775;51.564;5.460;2023-10-13T08:53:15;14.50;;;6.43;;
58472;SDS011;44775;51.564;5.460;2023-10-13T08:56:02;17.35;;;5.90;;
58472;SDS011;44775;51.564;5.460;2023-10-13T08:58:35;24.33;;;6.55;;
58472;SDS011;44775;51.564;5.460;2023-10-13T09:01:20;20.50;;;6.10;;
58472;SDS011;44775;51.564;5.460;2023-10-13T09:04:11;17.88;;;6.90;;
58472;SDS011;44775;51.564;5.460;2023-10-13T09:06:53;16.63;;;6.88;;
58472;SDS011;44775;51.564;5.460;2023-10-13T09:09:26;18.33;;;6.47;;
58472;SDS011;44775;51.564;5.460;2023-10-13T09:11:55;18.98;;;6.07;;
58472;SDS011;44775;51.564;5.460;2023-10-13T09:14:34;15.40;;;5.90;;
58472;SDS011;44775;51.564;5.460;2023-10-13T09:17:07;16.83;;;5.97;;
58472;SDS011;44775;51.564;5.460;2023-10-13T09:19:44;15.50;;;5.90;;
58472;SDS011;44775;51.564;5.460;2023-10-13T09:22:23;16.30;;;5.80;;
58472;SDS011;44775;51.564;5.460;2023-10-13T09:27:27;16.80;;;5.95;;
58472;SDS011;44775;51.564;5.460;2023-10-13T09:30:00;19.45;;;6.50;;
58472;SDS011;44775;51.564;5.460;2023-10-13T09:32:34;16.90;;;6.35;;
58472;SDS011;44775;51.564;5.460;2023-10-13T09:35:17;15.02;;;6.25;;
58472;SDS011;44775;51.564;5.460;2023-10-13T09:37:44;16.30;;;6.47;;
58472;SDS011;44775;51.564;5.460;2023-10-13T09:40:16;21.30;;;6.65;;
58472;SDS011;44775;51.564;5.460;2023-10-13T09:42:53;16.25;;;6.53;;
58472;SDS011;44775;51.564;5.460;2023-10-13T09:45:28;14.10;;;6.07;;
58472;SDS011;44775;51.564;5.460;2023-10-13T09:48:01;17.92;;;6.10;;
58472;SDS011;44775;51.564;5.460;2023-10-13T09:50:31;14.18;;;6.55;;
58472;SDS011;44775;51.564;5.460;2023-10-13T09:53:02;13.82;;;6.15;;
58472;SDS011;44775;51.564;5.460;2023-10-13T09:55:35;18.92;;;6.63;;
58472;SDS011;44775;51.564;5.460;2023-10-13T09:58:06;15.73;;;6.40;;
58472;SDS011;44775;51.564;5.460;2023-10-13T10:00:37;18.27;;;6.22;;
58472;SDS011;44775;51.564;5.460;2023-10-13T10:03:12;18.58;;;6.50;;
58472;SDS011;44775;51.564;5.460;2023-10-13T10:05:58;17.42;;;5.80;;
58472;SDS011;44775;51.564;5.460;2023-10-13T10:08:39;16.25;;;6.07;;
58472;SDS011;44775;51.564;5.460;2023-10-13T10:19:24;15.10;;;5.68;;
58472;SDS011;44775;51.564;5.460;2023-10-13T10:22:00;16.17;;;6.00;;
58472;SDS011;44775;51.564;5.460;2023-10-13T10:24:29;16.90;;;6.93;;
58472;SDS011;44775;51.564;5.460;2023-10-13T10:26:58;17.85;;;5.57;;
58472;SDS011;44775;51.564;5.460;2023-10-13T10:29:24;15.85;;;6.28;;
58472;SDS011;44775;51.564;5.460;2023-10-13T10:31:49;19.08;;;6.20;;
58472;SDS011;44775;51.564;5.460;2023-10-13T10:34:15;20.73;;;6.60;;
58472;SDS011;44775;51.564;5.460;2023-10-13T10:36:47;18.27;;;6.47;;
58472;SDS011;44775;51.564;5.460;2023-10-13T10:39:18;13.38;;;5.63;;
58472;SDS011;44775;51.564;5.460;2023-10-13T10:41:44;18.05;;;6.72;;
58472;SDS011;44775;51.564;5.460;2023-10-13T10:44:10;16.95;;;6.70;;
58472;SDS011;44775;51.564;5.460;2023-10-13T10:46:40;15.95;;;6.43;;
58472;SDS011;44775;51.564;5.460;2023-10-13T10:49:08;15.77;;;6.05;;
58472;SDS011;44775;51.564;5.460;2023-10-13T10:51:36;17.60;;;6.00;;
58472;SDS011;44775;51.564;5.460;2023-10-13T10:54:19;18.27;;;6.68;;
58472;SDS011;44775;51.564;5.460;2023-10-13T10:56:46;16.88;;;6.13;;
58472;SDS011;44775;51.564;5.460;2023-10-13T10:59:17;19.65;;;6.68;;
58472;SDS011;44775;51.564;5.460;2023-10-13T11:01:44;20.27;;;6.70;;
58472;SDS011;44775;51.564;5.460;2023-10-13T11:04:16;21.88;;;6.85;;
58472;SDS011;44775;51.564;5.460;2023-10-13T11:06:58;20.75;;;6.55;;
58472;SDS011;44775;51.564;5.460;2023-10-13T11:11:56;17.80;;;6.55;;
58472;SDS011;44775;51.564;5.460;2023-10-13T11:14:59;14.90;;;5.68;;
58472;SDS011;44775;51.564;5.460;2023-10-13T11:17:25;29.05;;;6.68;;
58472;SDS011;44775;51.564;5.460;2023-10-13T11:20:16;20.48;;;6.40;;
58472;SDS011;44775;51.564;5.460;2023-10-13T11:22:49;17.75;;;6.95;;
58472;SDS011;44775;51.564;5.460;2023-10-13T11:25:25;17.35;;;6.72;;
58472;SDS011;44775;51.564;5.460;2023-10-13T11:27:55;19.92;;;7.47;;
58472;SDS011;44775;51.564;5.460;2023-10-13T11:30:22;20.13;;;7.32;;
58472;SDS011;44775;51.564;5.460;2023-10-13T11:33:07;19.67;;;6.78;;
58472;SDS011;44775;51.564;5.460;2023-10-13T11:35:34;18.50;;;6.32;;
58472;SDS011;44775;51.564;5.460;2023-10-13T11:38:22;15.85;;;6.32;;
58472;SDS011;44775;51.564;5.460;2023-10-13T11:40:57;22.60;;;7.15;;
58472;SDS011;44775;51.564;5.460;2023-10-13T11:43:49;19.08;;;7.22;;
58472;SDS011;44775;51.564;5.460;2023-10-13T11:46:17;13.00;;;5.95;;
58472;SDS011;44775;51.564;5.460;2023-10-13T11:49:07;19.95;;;6.50;;
58472;SDS011;44775;51.564;5.460;2023-10-13T11:51:48;21.00;;;7.00;;
58472;SDS011;44775;51.564;5.460;2023-10-13T11:54:18;22.75;;;6.30;;
58472;SDS011;44775;51.564;5.460;2023-10-13T11:56:44;22.00;;;6.60;;
58472;SDS011;44775;51.564;5.460;2023-10-13T11:59:10;18.38;;;6.40;;
58472;SDS011;44775;51.564;5.460;2023-10-13T12:01:45;16.90;;;6.38;;
58472;SDS011;44775;51.564;5.460;2023-10-13T12:04:29;21.35;;;6.85;;
58472;SDS011;44775;51.564;5.460;2023-10-13T12:07:05;20.55;;;7.20;;
58472;SDS011;44775;51.564;5.460;2023-10-13T12:09:49;21.17;;;6.97;;
58472;SDS011;44775;51.564;5.460;2023-10-13T12:12:24;21.05;;;7.28;;
58472;SDS011;44775;51.564;5.460;2023-10-13T12:14:51;22.13;;;6.97;;
58472;SDS011;44775;51.564;5.460;2023-10-13T12:17:29;20.85;;;7.00;;
58472;SDS011;44775;51.564;5.460;2023-10-13T12:20:03;16.92;;;6.75;;
58472;SDS011;44775;51.564;5.460;2023-10-13T12:22:39;17.73;;;6.45;;
58472;SDS011;44775;51.564;5.460;2023-10-13T12:25:05;22.10;;;6.30;;
58472;SDS011;44775;51.564;5.460;2023-10-13T12:27:44;17.83;;;6.80;;
58472;SDS011;44775;51.564;5.460;2023-10-13T12:30:11;21.27;;;7.22;;
58472;SDS011;44775;51.564;5.460;2023-10-13T12:32:39;21.95;;;7.32;;
58472;SDS011;44775;51.564;5.460;2023-10-13T12:35:09;22.17;;;7.07;;
58472;SDS011;44775;51.564;5.460;2023-10-13T12:37:35;21.67;;;6.50;;
58472;SDS011;44775;51.564;5.460;2023-10-13T12:40:15;19.63;;;6.40;;
58472;SDS011;44775;51.564;5.460;2023-10-13T12:43:03;16.65;;;6.43;;
58472;SDS011;44775;51.564;5.460;2023-10-13T12:45:50;15.88;;;6.55;;
58472;SDS011;44775;51.564;5.460;2023-10-13T12:48:35;20.45;;;5.85;;
58472;SDS011;44775;51.564;5.460;2023-10-13T12:51:20;19.27;;;6.47;;
58472;SDS011;44775;51.564;5.460;2023-10-13T12:54:00;17.98;;;6.30;;
58472;SDS011;44775;51.564;5.460;2023-10-13T12:56:44;19.88;;;6.07;;
58472;SDS011;44775;51.564;5.460;2023-10-13T12:59:10;18.42;;;6.05;;
58472;SDS011;44775;51.564;5.460;2023-10-13T13:01:38;20.55;;;6.72;;
58472;SDS011;44775;51.564;5.460;2023-10-13T13:04:07;20.02;;;6.10;;
58472;SDS011;44775;51.564;5.460;2023-10-13T13:06:36;18.85;;;5.78;;
58472;SDS011;44775;51.564;5.460;2023-10-13T13:09:02;17.27;;;5.47;;
58472;SDS011;44775;51.564;5.460;2023-10-13T13:11:27;20.65;;;5.97;;
58472;SDS011;44775;51.564;5.460;2023-10-13T13:13:56;20.38;;;6.05;;
58472;SDS011;44775;51.564;5.460;2023-10-13T13:16:21;13.00;;;4.97;;
58472;SDS011;44775;51.564;5.460;2023-10-13T13:18:50;15.05;;;4.75;;
58472;SDS011;44775;51.564;5.460;2023-10-13T13:21:16;16.63;;;5.43;;
58472;SDS011;44775;51.564;5.460;2023-10-13T13:23:52;15.63;;;5.55;;
58472;SDS011;44775;51.564;5.460;2023-10-13T13:26:19;13.93;;;5.25;;
58472;SDS011;44775;51.564;5.460;2023-10-13T13:28:45;18.48;;;5.22;;
58472;SDS011;44775;51.564;5.460;2023-10-13T13:31:15;17.98;;;5.38;;
58472;SDS011;44775;51.564;5.460;2023-10-13T13:33:40;13.25;;;4.85;;
58472;SDS011;44775;51.564;5.460;2023-10-13T13:36:08;16.03;;;5.53;;
58472;SDS011;44775;51.564;5.460;2023-10-13T13:38:41;20.30;;;5.20;;
58472;SDS011;44775;51.564;5.460;2023-10-13T13:41:13;18.13;;;5.78;;
58472;SDS011;44775;51.564;5.460;2023-10-13T13:43:49;14.50;;;4.85;;
58472;SDS011;44775;51.564;5.460;2023-10-13T13:46:21;13.93;;;4.68;;
58472;SDS011;44775;51.564;5.460;2023-10-13T13:48:52;15.50;;;4.95;;
58472;SDS011;44775;51.564;5.460;2023-10-13T13:51:22;15.60;;;5.25;;
58472;SDS011;44775;51.564;5.460;2023-10-13T13:53:56;17.40;;;5.68;;
58472;SDS011;44775;51.564;5.460;2023-10-13T13:56:23;20.95;;;6.00;;
58472;SDS011;44775;51.564;5.460;2023-10-13T13:58:52;21.27;;;5.70;;
58472;SDS011;44775;51.564;5.460;2023-10-13T14:01:19;12.77;;;5.50;;
58472;SDS011;44775;51.564;5.460;2023-10-13T14:03:50;16.77;;;5.45;;
58472;SDS011;44775;51.564;5.460;2023-10-13T14:06:20;14.68;;;4.97;;
58472;SDS011;44775;51.564;5.460;2023-10-13T14:08:52;16.98;;;5.78;;
58472;SDS011;44775;51.564;5.460;2023-10-13T14:11:21;19.30;;;4.95;;
58472;SDS011;44775;51.564;5.460;2023-10-13T14:14:06;18.08;;;5.40;;
58472;SDS011;44775;51.564;5.460;2023-10-13T14:16:41;14.23;;;5.03;;
58472;SDS011;44775;51.564;5.460;2023-10-13T14:19:12;15.98;;;5.50;;
58472;SDS011;44775;51.564;5.460;2023-10-13T14:21:37;15.00;;;4.78;;
58472;SDS011;44775;51.564;5.460;2023-10-13T14:24:03;15.07;;;5.10;;
58472;SDS011;44775;51.564;5.460;2023-10-13T14:26:37;15.05;;;5.75;;
58472;SDS011;44775;51.564;5.460;2023-10-13T14:29:03;16.60;;;5.18;;
58472;SDS011;44775;51.564;5.460;2023-10-13T14:31:32;17.35;;;4.82;;
58472;SDS011;44775;51.564;5.460;2023-10-13T14:33:58;20.13;;;5.60;;
58472;SDS011;44775;51.564;5.460;2023-10-13T14:36:24;12.43;;;5.05;;
58472;SDS011;44775;51.564;5.460;2023-10-13T14:38:53;17.42;;;5.20;;
58472;SDS011;44775;51.564;5.460;2023-10-13T14:41:19;14.57;;;5.30;;
58472;SDS011;44775;51.564;5.460;2023-10-13T14:43:45;14.82;;;5.22;;
58472;SDS011;44775;51.564;5.460;2023-10-13T14:46:14;19.25;;;5.57;;
58472;SDS011;44775;51.564;5.460;2023-10-13T14:48:40;15.32;;;5.07;;
58472;SDS011;44775;51.564;5.460;2023-10-13T14:51:10;19.27;;;5.30;;
58472;SDS011;44775;51.564;5.460;2023-10-13T14:53:38;18.92;;;5.25;;
58472;SDS011;44775;51.564;5.460;2023-10-13T14:56:07;20.92;;;5.85;;
58472;SDS011;44775;51.564;5.460;2023-10-13T14:58:33;14.45;;;5.30;;
58472;SDS011;44775;51.564;5.460;2023-10-13T15:00:59;18.85;;;5.53;;
58472;SDS011;44775;51.564;5.460;2023-10-13T15:03:25;16.30;;;5.47;;
58472;SDS011;44775;51.564;5.460;2023-10-13T15:05:51;18.65;;;6.10;;
58472;SDS011;44775;51.564;5.460;2023-10-13T15:08:16;14.45;;;6.10;;
58472;SDS011;44775;51.564;5.460;2023-10-13T15:10:43;17.58;;;5.72;;
58472;SDS011;44775;51.564;5.460;2023-10-13T15:13:09;15.52;;;5.90;;
58472;SDS011;44775;51.564;5.460;2023-10-13T15:15:35;13.00;;;5.38;;
58472;SDS011;44775;51.564;5.460;2023-10-13T15:18:00;17.27;;;5.38;;
58472;SDS011;44775;51.564;5.460;2023-10-13T15:20:26;20.73;;;5.72;;
58472;SDS011;44775;51.564;5.460;2023-10-13T15:22:51;19.90;;;6.65;;
58472;SDS011;44775;51.564;5.460;2023-10-13T15:25:24;19.58;;;5.60;;
58472;SDS011;44775;51.564;5.460;2023-10-13T15:28:04;18.35;;;5.80;;